sensor_id;sensor_type;location;lat;lon;timestamp;pressure;altitude;pressure_sealevel;temperature;humidity
8573;BME280;4324;42.012;24.872;2023-04-01T00:01:31;98033.38;;;11.70;53.00
8573;BME280;4324;42.012;24.872;2023-04-01T00:03:59;98049.50;;;11.75;53.07
8573;BME280;4324;42.012;24.872;2023-04-01T00:06:28;98059.94;;;11.76;52.99
8573;BME280;4324;42.012;24.872;2023-04-01T00:08:55;98004.25;;;11.35;52.89
8573;BME280;4324;42.012;24.872;2023-04-01T00:11:22;98061.09;;;11.67;53.10
8573;BME280;4324;42.012;24.872;2023-04-01T00:13:49;98054.16;;;11.66;53.19
8573;BME280;4324;42.012;24.872;2023-04-01T00:16:16;97979.84;;;11.11;53.21
8573;BME280;4324;42.012;24.872;2023-04-01T00:18:43;98085.66;;;11.76;53.20
8573;BME280;4324;42.012;24.872;2023-04-01T00:21:11;98027.94;;;11.43;53.26
8573;BME280;4324;42.012;24.872;2023-04-01T00:23:38;98087.06;;;11.72;53.25
8573;BME280;4324;42.012;24.872;2023-04-01T00:26:05;98091.13;;;11.74;53.29
8573;BME280;4324;42.012;24.872;2023-04-01T00:28:33;98082.34;;;11.74;53.55
8573;BME280;4324;42.012;24.872;2023-04-01T00:31:04;98070.91;;;11.67;53.52
8573;BME280;4324;42.012;24.872;2023-04-01T00:33:31;98030.97;;;11.40;53.46
8573;BME280;4324;42.012;24.872;2023-04-01T00:36:06;98075.38;;;11.66;53.20
8573;BME280;4324;42.012;24.872;2023-04-01T00:38:35;98060.03;;;11.55;53.80
8573;BME280;4324;42.012;24.872;2023-04-01T00:41:03;98057.59;;;11.53;53.76
8573;BME280;4324;42.012;24.872;2023-04-01T00:43:30;98056.19;;;11.57;53.73
8573;BME280;4324;42.012;24.872;2023-04-01T00:45:58;98066.97;;;11.56;53.62
8573;BME280;4324;42.012;24.872;2023-04-01T00:48:28;98057.72;;;11.45;53.49
8573;BME280;4324;42.012;24.872;2023-04-01T00:51:00;98049.09;;;11.36;53.59
8573;BME280;4324;42.012;24.872;2023-04-01T00:53:30;98060.53;;;11.37;53.82
8573;BME280;4324;42.012;24.872;2023-04-01T00:56:01;98072.31;;;11.34;53.70
8573;BME280;4324;42.012;24.872;2023-04-01T00:58:31;98030.97;;;11.05;53.71
8573;BME280;4324;42.012;24.872;2023-04-01T01:01:00;98072.91;;;11.30;53.80
8573;BME280;4324;42.012;24.872;2023-04-01T01:03:27;98061.88;;;11.26;54.16
8573;BME280;4324;42.012;24.872;2023-04-01T01:06:10;98064.34;;;11.28;54.42
8573;BME280;4324;42.012;24.872;2023-04-01T01:09:17;98066.19;;;11.34;54.89
8573;BME280;4324;42.012;24.872;2023-04-01T01:11:54;98067.06;;;11.41;54.61
8573;BME280;4324;42.012;24.872;2023-04-01T01:14:34;98052.19;;;11.40;54.54
8573;BME280;4324;42.012;24.872;2023-04-01T01:17:12;98033.00;;;11.38;54.69
8573;BME280;4324;42.012;24.872;2023-04-01T01:20:18;98061.91;;;11.68;54.87
8573;BME280;4324;42.012;24.872;2023-04-01T01:23:02;98069.09;;;11.74;54.59
8573;BME280;4324;42.012;24.872;2023-04-01T01:25:42;98050.94;;;11.71;54.33
8573;BME280;4324;42.012;24.872;2023-04-01T01:28:28;97975.25;;;11.27;54.42
8573;BME280;4324;42.012;24.872;2023-04-01T01:31:05;98062.00;;;11.81;54.63
8573;BME280;4324;42.012;24.872;2023-04-01T01:33:48;98062.00;;;11.81;54.79
8573;BME280;4324;42.012;24.872;2023-04-01T01:36:20;98060.38;;;11.80;54.71
8573;BME280;4324;42.012;24.872;2023-04-01T01:38:48;98065.66;;;11.80;54.64
8573;BME280;4324;42.012;24.872;2023-04-01T01:41:18;98069.31;;;11.79;54.80
8573;BME280;4324;42.012;24.872;2023-04-01T01:43:48;98034.53;;;11.60;55.20
8573;BME280;4324;42.012;24.872;2023-04-01T01:46:19;98064.63;;;11.74;55.57
8573;BME280;4324;42.012;24.872;2023-04-01T01:48:49;98054.22;;;11.73;55.21
8573;BME280;4324;42.012;24.872;2023-04-01T01:51:20;98042.13;;;11.63;55.11
8573;BME280;4324;42.012;24.872;2023-04-01T01:53:48;98051.72;;;11.65;54.96
8573;BME280;4324;42.012;24.872;2023-04-01T01:56:18;98050.06;;;11.57;55.71
8573;BME280;4324;42.012;24.872;2023-04-01T01:58:48;98031.63;;;11.42;55.89
8573;BME280;4324;42.012;24.872;2023-04-01T02:01:20;98060.72;;;11.70;55.86
8573;BME280;4324;42.012;24.872;2023-04-01T02:03:49;98055.22;;;11.72;55.57
8573;BME280;4324;42.012;24.872;2023-04-01T02:06:21;98030.91;;;11.61;55.51
8573;BME280;4324;42.012;24.872;2023-04-01T02:08:51;98038.84;;;11.61;55.85
8573;BME280;4324;42.012;24.872;2023-04-01T02:11:25;98050.50;;;11.67;56.17
8573;BME280;4324;42.012;24.872;2023-04-01T02:13:56;98022.69;;;11.56;55.94
8573;BME280;4324;42.012;24.872;2023-04-01T02:16:29;98024.97;;;11.59;55.88
8573;BME280;4324;42.012;24.872;2023-04-01T02:18:59;98033.94;;;11.58;55.73
8573;BME280;4324;42.012;24.872;2023-04-01T02:21:31;97996.53;;;11.40;56.27
8573;BME280;4324;42.012;24.872;2023-04-01T02:24:00;98006.53;;;11.45;56.25
8573;BME280;4324;42.012;24.872;2023-04-01T02:26:28;97987.94;;;11.31;56.35
8573;BME280;4324;42.012;24.872;2023-04-01T02:28:56;98019.59;;;11.46;56.27
8573;BME280;4324;42.012;24.872;2023-04-01T02:31:25;97987.72;;;11.33;56.78
8573;BME280;4324;42.012;24.872;2023-04-01T02:33:53;97973.19;;;11.22;57.10
8573;BME280;4324;42.012;24.872;2023-04-01T02:36:21;98016.97;;;11.53;57.54
8573;BME280;4324;42.012;24.872;2023-04-01T02:38:49;98011.50;;;11.54;57.94
8573;BME280;4324;42.012;24.872;2023-04-01T02:41:20;98015.34;;;11.52;57.74
8573;BME280;4324;42.012;24.872;2023-04-01T02:43:47;97984.25;;;11.32;57.99
8573;BME280;4324;42.012;24.872;2023-04-01T02:46:14;97969.88;;;11.13;58.08
8573;BME280;4324;42.012;24.872;2023-04-01T02:48:41;98008.09;;;11.32;58.88
8573;BME280;4324;42.012;24.872;2023-04-01T02:51:08;98007.88;;;11.27;58.86
8573;BME280;4324;42.012;24.872;2023-04-01T02:53:35;98004.16;;;11.22;59.28
8573;BME280;4324;42.012;24.872;2023-04-01T02:56:04;98012.69;;;11.17;58.87
8573;BME280;4324;42.012;24.872;2023-04-01T02:58:31;98007.16;;;11.12;58.42
8573;BME280;4324;42.012;24.872;2023-04-01T03:00:58;98008.53;;;11.01;58.92
8573;BME280;4324;42.012;24.872;2023-04-01T03:03:25;98008.41;;;10.88;59.16
8573;BME280;4324;42.012;24.872;2023-04-01T03:05:54;98019.97;;;10.80;59.19
8573;BME280;4324;42.012;24.872;2023-04-01T03:08:26;98025.41;;;10.72;59.03
8573;BME280;4324;42.012;24.872;2023-04-01T03:10:53;97982.63;;;10.47;58.73
8573;BME280;4324;42.012;24.872;2023-04-01T03:13:21;98014.75;;;10.65;58.82
8573;BME280;4324;42.012;24.872;2023-04-01T03:15:48;98005.72;;;10.60;58.83
8573;BME280;4324;42.012;24.872;2023-04-01T03:18:15;98009.63;;;10.64;59.00
8573;BME280;4324;42.012;24.872;2023-04-01T03:20:42;97984.53;;;10.53;58.61
8573;BME280;4324;42.012;24.872;2023-04-01T03:23:09;98000.88;;;10.63;58.45
8573;BME280;4324;42.012;24.872;2023-04-01T03:25:36;97987.53;;;10.50;58.68
8573;BME280;4324;42.012;24.872;2023-04-01T03:28:03;97978.97;;;10.48;58.71
8573;BME280;4324;42.012;24.872;2023-04-01T03:30:31;97994.97;;;10.61;58.88
8573;BME280;4324;42.012;24.872;2023-04-01T03:32:59;97995.59;;;10.63;58.89
8573;BME280;4324;42.012;24.872;2023-04-01T03:35:26;97995.94;;;10.54;58.86
8573;BME280;4324;42.012;24.872;2023-04-01T03:37:53;97990.31;;;10.42;58.92
8573;BME280;4324;42.012;24.872;2023-04-01T03:40:21;98003.56;;;10.42;59.27
8573;BME280;4324;42.012;24.872;2023-04-01T03:42:48;97984.69;;;10.30;59.22
8573;BME280;4324;42.012;24.872;2023-04-01T03:45:18;97997.41;;;10.41;59.67
8573;BME280;4324;42.012;24.872;2023-04-01T03:47:46;97995.03;;;10.47;59.32
8573;BME280;4324;42.012;24.872;2023-04-01T03:50:13;97952.72;;;10.25;59.01
8573;BME280;4324;42.012;24.872;2023-04-01T03:52:40;97899.84;;;9.89;59.02
8573;BME280;4324;42.012;24.872;2023-04-01T03:55:10;97928.88;;;10.04;59.48
8573;BME280;4324;42.012;24.872;2023-04-01T03:57:37;97954.78;;;10.30;59.76
8573;BME280;4324;42.012;24.872;2023-04-01T04:00:05;97981.22;;;10.51;59.72
8573;BME280;4324;42.012;24.872;2023-04-01T04:02:34;97940.16;;;10.34;59.37
8573;BME280;4324;42.012;24.872;2023-04-01T04:05:05;97973.53;;;10.56;59.41
8573;BME280;4324;42.012;24.872;2023-04-01T04:07:34;97974.16;;;10.58;59.53
8573;BME280;4324;42.012;24.872;2023-04-01T04:10:01;97952.50;;;10.48;59.56
8573;BME280;4324;42.012;24.872;2023-04-01T04:12:27;97951.75;;;10.54;59.79
8573;BME280;4324;42.012;24.872;2023-04-01T04:14:54;97950.34;;;10.58;59.89
8573;BME280;4324;42.012;24.872;2023-04-01T04:17:21;97967.34;;;10.71;59.73
8573;BME280;4324;42.012;24.872;2023-04-01T04:19:48;97950.56;;;10.63;59.73
8573;BME280;4324;42.012;24.872;2023-04-01T04:22:16;97961.44;;;10.75;60.21
8573;BME280;4324;42.012;24.872;2023-04-01T04:24:43;97959.50;;;10.84;60.20
8573;BME280;4324;42.012;24.872;2023-04-01T04:27:10;97954.25;;;10.90;60.52
8573;BME280;4324;42.012;24.872;2023-04-01T04:29:40;97960.59;;;10.96;60.26
8573;BME280;4324;42.012;24.872;2023-04-01T04:32:07;97958.19;;;11.01;60.35
8573;BME280;4324;42.012;24.872;2023-04-01T04:34:34;97948.97;;;10.97;60.41
8573;BME280;4324;42.012;24.872;2023-04-01T04:37:01;97959.72;;;11.17;60.49
8573;BME280;4324;42.012;24.872;2023-04-01T04:39:29;97947.66;;;11.14;60.65
8573;BME280;4324;42.012;24.872;2023-04-01T04:41:56;97958.53;;;11.26;60.37
8573;BME280;4324;42.012;24.872;2023-04-01T04:44:23;97961.00;;;11.28;60.47
8573;BME280;4324;42.012;24.872;2023-04-01T04:46:50;97964.63;;;11.27;60.15
8573;BME280;4324;42.012;24.872;2023-04-01T04:49:17;97959.50;;;11.19;60.23
8573;BME280;4324;42.012;24.872;2023-04-01T04:51:44;97952.31;;;11.06;60.47
8573;BME280;4324;42.012;24.872;2023-04-01T04:54:11;97881.97;;;10.62;60.19
8573;BME280;4324;42.012;24.872;2023-04-01T04:56:39;97968.63;;;11.09;60.38
8573;BME280;4324;42.012;24.872;2023-04-01T04:59:06;97983.94;;;11.14;60.48
8573;BME280;4324;42.012;24.872;2023-04-01T05:01:33;97943.25;;;10.94;60.65
8573;BME280;4324;42.012;24.872;2023-04-01T05:04:00;97974.22;;;11.21;60.69
8573;BME280;4324;42.012;24.872;2023-04-01T05:06:27;97973.84;;;11.31;60.71
8573;BME280;4324;42.012;24.872;2023-04-01T05:08:55;97975.53;;;11.38;60.45
8573;BME280;4324;42.012;24.872;2023-04-01T05:11:22;97957.38;;;11.35;60.58
8573;BME280;4324;42.012;24.872;2023-04-01T05:13:50;97969.28;;;11.59;60.79
8573;BME280;4324;42.012;24.872;2023-04-01T05:16:18;97954.84;;;11.75;61.02
8573;BME280;4324;42.012;24.872;2023-04-01T05:18:46;97958.44;;;11.96;60.85
8573;BME280;4324;42.012;24.872;2023-04-01T05:21:14;97962.53;;;12.11;60.52
8573;BME280;4324;42.012;24.872;2023-04-01T05:23:42;97940.91;;;12.15;60.49
8573;BME280;4324;42.012;24.872;2023-04-01T05:26:11;97936.47;;;12.35;60.62
8573;BME280;4324;42.012;24.872;2023-04-01T05:28:40;97948.09;;;12.60;60.46
8573;BME280;4324;42.012;24.872;2023-04-01T05:31:09;97956.06;;;12.87;60.14
8573;BME280;4324;42.012;24.872;2023-04-01T05:33:36;97942.97;;;12.92;59.86
8573;BME280;4324;42.012;24.872;2023-04-01T05:36:07;97954.59;;;13.04;59.80
8573;BME280;4324;42.012;24.872;2023-04-01T05:38:34;97941.72;;;13.01;59.22
8573;BME280;4324;42.012;24.872;2023-04-01T05:41:02;97949.91;;;13.06;59.29
8573;BME280;4324;42.012;24.872;2023-04-01T05:43:29;97950.72;;;13.00;59.34
8573;BME280;4324;42.012;24.872;2023-04-01T05:45:56;97933.97;;;12.87;59.47
8573;BME280;4324;42.012;24.872;2023-04-01T05:48:24;97948.69;;;12.89;59.98
8573;BME280;4324;42.012;24.872;2023-04-01T05:50:51;97932.75;;;12.82;60.17
8573;BME280;4324;42.012;24.872;2023-04-01T05:53:19;97878.03;;;12.48;60.20
8573;BME280;4324;42.012;24.872;2023-04-01T05:55:47;97889.06;;;12.52;60.07
8573;BME280;4324;42.012;24.872;2023-04-01T05:58:14;97917.03;;;12.68;60.19
8573;BME280;4324;42.012;24.872;2023-04-01T06:00:41;97911.31;;;12.71;60.48
8573;BME280;4324;42.012;24.872;2023-04-01T06:03:08;97886.19;;;12.67;60.51
8573;BME280;4324;42.012;24.872;2023-04-01T06:05:46;97881.28;;;12.77;60.47
8573;BME280;4324;42.012;24.872;2023-04-01T06:08:18;97834.34;;;12.57;60.52
8573;BME280;4324;42.012;24.872;2023-04-01T06:10:55;97830.03;;;12.63;60.24
8573;BME280;4324;42.012;24.872;2023-04-01T06:13:35;97883.84;;;13.17;60.41
8573;BME280;4324;42.012;24.872;2023-04-01T06:16:12;97882.41;;;13.21;60.41
8573;BME280;4324;42.012;24.872;2023-04-01T06:18:59;97882.34;;;13.34;60.40
8573;BME280;4324;42.012;24.872;2023-04-01T06:21:46;97872.09;;;13.44;60.18
8573;BME280;4324;42.012;24.872;2023-04-01T06:24:39;97872.44;;;13.61;60.23
8573;BME280;4324;42.012;24.872;2023-04-01T06:27:13;97847.34;;;13.75;60.11
8573;BME280;4324;42.012;24.872;2023-04-01T06:29:51;97846.81;;;13.98;59.73
8573;BME280;4324;42.012;24.872;2023-04-01T06:35:26;97842.56;;;14.16;59.14
8573;BME280;4324;42.012;24.872;2023-04-01T06:38:10;97848.66;;;14.23;59.04
8573;BME280;4324;42.012;24.872;2023-04-01T06:40:49;97842.09;;;14.25;59.19
8573;BME280;4324;42.012;24.872;2023-04-01T06:43:27;97799.22;;;14.09;58.97
8573;BME280;4324;42.012;24.872;2023-04-01T06:46:08;97814.72;;;14.18;58.78
8573;BME280;4324;42.012;24.872;2023-04-01T06:49:02;97836.00;;;14.43;59.18
8573;BME280;4324;42.012;24.872;2023-04-01T06:51:39;97824.91;;;14.46;58.83
8573;BME280;4324;42.012;24.872;2023-04-01T06:54:16;97788.69;;;14.20;58.58
8573;BME280;4324;42.012;24.872;2023-04-01T06:56:45;97829.75;;;14.31;58.50
8573;BME280;4324;42.012;24.872;2023-04-01T06:59:17;97850.94;;;14.44;58.86
8573;BME280;4324;42.012;24.872;2023-04-01T07:01:46;97836.72;;;14.32;59.11
8573;BME280;4324;42.012;24.872;2023-04-01T07:04:17;97864.00;;;14.52;59.09
8573;BME280;4324;42.012;24.872;2023-04-01T07:06:50;97849.66;;;14.54;59.01
8573;BME280;4324;42.012;24.872;2023-04-01T07:09:24;97833.16;;;14.63;58.67
8573;BME280;4324;42.012;24.872;2023-04-01T07:11:53;97853.47;;;14.83;58.32
8573;BME280;4324;42.012;24.872;2023-04-01T07:14:26;97860.50;;;14.95;58.64
8573;BME280;4324;42.012;24.872;2023-04-01T07:16:59;97858.41;;;14.97;58.29
8573;BME280;4324;42.012;24.872;2023-04-01T07:19:32;97848.38;;;14.99;58.53
8573;BME280;4324;42.012;24.872;2023-04-01T07:22:05;97852.59;;;15.07;58.86
8573;BME280;4324;42.012;24.872;2023-04-01T07:24:40;97856.44;;;15.11;58.71
8573;BME280;4324;42.012;24.872;2023-04-01T07:27:11;97846.50;;;15.18;59.08
8573;BME280;4324;42.012;24.872;2023-04-01T07:29:38;97824.66;;;15.28;58.81
8573;BME280;4324;42.012;24.872;2023-04-01T07:32:21;97813.38;;;15.26;58.78
8573;BME280;4324;42.012;24.872;2023-04-01T07:35:07;97824.38;;;15.48;58.46
8573;BME280;4324;42.012;24.872;2023-04-01T07:37:40;97819.53;;;15.57;58.42
8573;BME280;4324;42.012;24.872;2023-04-01T07:40:21;97778.28;;;15.29;58.25
8573;BME280;4324;42.012;24.872;2023-04-01T07:43:02;97823.00;;;15.57;58.38
8573;BME280;4324;42.012;24.872;2023-04-01T07:45:35;97806.78;;;15.59;58.21
8573;BME280;4324;42.012;24.872;2023-04-01T07:48:12;97808.81;;;15.75;58.07
8573;BME280;4324;42.012;24.872;2023-04-01T07:50:50;97797.69;;;15.78;58.14
8573;BME280;4324;42.012;24.872;2023-04-01T07:53:27;97794.47;;;15.76;57.92
8573;BME280;4324;42.012;24.872;2023-04-01T07:56:04;97786.63;;;15.63;57.83
8573;BME280;4324;42.012;24.872;2023-04-01T07:58:39;97799.53;;;15.66;58.21
8573;BME280;4324;42.012;24.872;2023-04-01T08:01:13;97791.34;;;15.61;58.27
8573;BME280;4324;42.012;24.872;2023-04-01T08:04:05;97779.38;;;15.52;58.15
8573;BME280;4324;42.012;24.872;2023-04-01T08:06:43;97796.13;;;15.59;58.27
8573;BME280;4324;42.012;24.872;2023-04-01T08:09:16;97776.81;;;15.45;58.20
8573;BME280;4324;42.012;24.872;2023-04-01T08:12:01;97787.41;;;15.52;58.42
8573;BME280;4324;42.012;24.872;2023-04-01T08:14:33;97784.84;;;15.57;58.62
8573;BME280;4324;42.012;24.872;2023-04-01T08:17:05;97780.00;;;15.54;58.50
8573;BME280;4324;42.012;24.872;2023-04-01T08:19:48;97780.69;;;15.61;58.64
8573;BME280;4324;42.012;24.872;2023-04-01T08:22:25;97781.88;;;15.65;58.44
8573;BME280;4324;42.012;24.872;2023-04-01T08:24:55;97785.56;;;15.64;58.27
8573;BME280;4324;42.012;24.872;2023-04-01T08:27:36;97781.97;;;15.58;58.55
8573;BME280;4324;42.012;24.872;2023-04-01T08:30:19;97766.97;;;15.57;58.76
8573;BME280;4324;42.012;24.872;2023-04-01T08:32:49;97762.59;;;15.63;58.70
8573;BME280;4324;42.012;24.872;2023-04-01T08:35:24;97762.84;;;15.61;58.54
8573;BME280;4324;42.012;24.872;2023-04-01T08:37:53;97742.03;;;15.52;58.29
8573;BME280;4324;42.012;24.872;2023-04-01T08:40:41;97719.91;;;15.63;58.14
8573;BME280;4324;42.012;24.872;2023-04-01T08:43:22;97750.28;;;16.04;57.83
8573;BME280;4324;42.012;24.872;2023-04-01T08:46:08;97753.66;;;16.11;57.53
8573;BME280;4324;42.012;24.872;2023-04-01T08:48:53;97748.31;;;16.11;57.39
8573;BME280;4324;42.012;24.872;2023-04-01T08:54:48;97733.41;;;16.62;57.16
8573;BME280;4324;42.012;24.872;2023-04-01T08:57:34;97705.59;;;16.75;56.51
8573;BME280;4324;42.012;24.872;2023-04-01T09:00:15;97710.31;;;16.96;56.04
8573;BME280;4324;42.012;24.872;2023-04-01T09:03:14;97688.78;;;17.03;55.75
8573;BME280;4324;42.012;24.872;2023-04-01T09:06:19;97709.59;;;17.29;55.64
8573;BME280;4324;42.012;24.872;2023-04-01T09:12:06;97686.50;;;17.40;55.09
8573;BME280;4324;42.012;24.872;2023-04-01T09:15:12;97685.44;;;17.41;54.96
8573;BME280;4324;42.012;24.872;2023-04-01T09:21:02;97649.81;;;17.07;54.96
8573;BME280;4324;42.012;24.872;2023-04-01T09:26:42;97646.19;;;16.84;55.06
8573;BME280;4324;42.012;24.872;2023-04-01T09:29:22;97638.19;;;16.84;55.35
8573;BME280;4324;42.012;24.872;2023-04-01T09:32:04;97642.66;;;16.96;55.25
8573;BME280;4324;42.012;24.872;2023-04-01T09:34:52;97643.00;;;17.16;54.93
8573;BME280;4324;42.012;24.872;2023-04-01T09:37:30;97602.00;;;17.10;54.81
8573;BME280;4324;42.012;24.872;2023-04-01T09:40:13;97565.38;;;17.11;54.67
8573;BME280;4324;42.012;24.872;2023-04-01T09:42:45;97624.53;;;17.48;54.56
8573;BME280;4324;42.012;24.872;2023-04-01T09:45:35;97615.59;;;17.42;54.46
8573;BME280;4324;42.012;24.872;2023-04-01T09:48:15;97608.16;;;17.45;54.37
8573;BME280;4324;42.012;24.872;2023-04-01T09:50:52;97599.88;;;17.46;54.51
8573;BME280;4324;42.012;24.872;2023-04-01T09:53:36;97596.97;;;17.48;54.49
8573;BME280;4324;42.012;24.872;2023-04-01T09:56:26;97599.72;;;17.53;54.66
8573;BME280;4324;42.012;24.872;2023-04-01T09:59:13;97604.41;;;17.62;54.29
8573;BME280;4324;42.012;24.872;2023-04-01T10:02:15;97577.56;;;17.57;54.20
8573;BME280;4324;42.012;24.872;2023-04-01T10:05:33;97600.50;;;17.87;54.20
8573;BME280;4324;42.012;24.872;2023-04-01T10:08:36;97588.78;;;18.10;53.82
8573;BME280;4324;42.012;24.872;2023-04-01T10:11:26;97575.44;;;18.15;53.34
8573;BME280;4324;42.012;24.872;2023-04-01T10:14:43;97590.69;;;18.36;53.32
8573;BME280;4324;42.012;24.872;2023-04-01T10:18:01;97576.38;;;18.53;53.07
8573;BME280;4324;42.012;24.872;2023-04-01T10:21:05;97565.56;;;18.43;52.94
8573;BME280;4324;42.012;24.872;2023-04-01T10:24:06;97554.25;;;18.35;52.86
8573;BME280;4324;42.012;24.872;2023-04-01T10:27:10;97558.69;;;18.25;52.81
8573;BME280;4324;42.012;24.872;2023-04-01T10:29:56;97545.22;;;17.98;52.85
8573;BME280;4324;42.012;24.872;2023-04-01T10:35:55;97540.16;;;17.79;53.42
8573;BME280;4324;42.012;24.872;2023-04-01T10:39:03;97531.25;;;17.74;53.42
8573;BME280;4324;42.012;24.872;2023-04-01T10:42:03;97512.09;;;18.04;53.36
8573;BME280;4324;42.012;24.872;2023-04-01T10:48:24;97504.56;;;18.28;52.73
8573;BME280;4324;42.012;24.872;2023-04-01T10:51:16;97493.34;;;18.31;52.27
8573;BME280;4324;42.012;24.872;2023-04-01T10:54:15;97487.81;;;18.37;52.08
8573;BME280;4324;42.012;24.872;2023-04-01T10:56:55;97473.59;;;18.37;52.26
8573;BME280;4324;42.012;24.872;2023-04-01T11:16:11;97371.09;;;18.52;51.50
8573;BME280;4324;42.012;24.872;2023-04-01T11:19:22;97411.94;;;19.01;51.60
8573;BME280;4324;42.012;24.872;2023-04-01T11:22:12;97394.50;;;18.99;51.45
8573;BME280;4324;42.012;24.872;2023-04-01T11:24:59;97352.00;;;18.80;51.42
8573;BME280;4324;42.012;24.872;2023-04-01T11:31:23;97342.97;;;18.92;51.48
8573;BME280;4324;42.012;24.872;2023-04-01T11:33:57;97331.09;;;18.82;51.59
8573;BME280;4324;42.012;24.872;2023-04-01T11:36:35;97340.78;;;18.89;51.58
8573;BME280;4324;42.012;24.872;2023-04-01T11:39:13;97380.53;;;18.97;51.68
8573;BME280;4324;42.012;24.872;2023-04-01T11:41:52;97377.75;;;18.81;52.05
8573;BME280;4324;42.012;24.872;2023-04-01T11:44:24;97365.38;;;18.75;52.10
8573;BME280;4324;42.012;24.872;2023-04-01T11:47:19;97365.88;;;18.72;52.15
8573;BME280;4324;42.012;24.872;2023-04-01T11:50:03;97357.59;;;18.74;52.04
8573;BME280;4324;42.012;24.872;2023-04-01T11:53:05;97344.38;;;18.62;51.79
8573;BME280;4324;42.012;24.872;2023-04-01T11:55:47;97356.53;;;18.43;51.73
8573;BME280;4324;42.012;24.872;2023-04-01T12:01:32;97373.44;;;18.11;52.30
8573;BME280;4324;42.012;24.872;2023-04-01T12:04:29;97356.13;;;17.92;52.49
8573;BME280;4324;42.012;24.872;2023-04-01T12:07:05;97351.66;;;17.75;53.02
8573;BME280;4324;42.012;24.872;2023-04-01T12:09:40;97349.41;;;17.67;52.85
8573;BME280;4324;42.012;24.872;2023-04-01T12:12:17;97356.38;;;17.68;52.81
8573;BME280;4324;42.012;24.872;2023-04-01T12:14:58;97278.28;;;17.22;52.74
8573;BME280;4324;42.012;24.872;2023-04-01T12:17:36;97309.88;;;17.47;52.61
8573;BME280;4324;42.012;24.872;2023-04-01T12:20:26;97339.16;;;17.59;52.96
8573;BME280;4324;42.012;24.872;2023-04-01T12:23:09;97317.47;;;17.60;53.09
8573;BME280;4324;42.012;24.872;2023-04-01T12:25:57;97315.97;;;17.70;53.29
8573;BME280;4324;42.012;24.872;2023-04-01T12:28:40;97315.19;;;17.69;53.44
8573;BME280;4324;42.012;24.872;2023-04-01T12:31:22;97308.75;;;17.70;53.66
8573;BME280;4324;42.012;24.872;2023-04-01T12:34:20;97283.50;;;17.61;53.49
8573;BME280;4324;42.012;24.872;2023-04-01T12:37:05;97306.81;;;17.87;53.76
8573;BME280;4324;42.012;24.872;2023-04-01T12:39:55;97260.00;;;17.68;54.04
8573;BME280;4324;42.012;24.872;2023-04-01T12:42:57;97284.34;;;17.94;53.99
8573;BME280;4324;42.012;24.872;2023-04-01T12:45:32;97256.38;;;18.06;53.82
8573;BME280;4324;42.012;24.872;2023-04-01T12:48:31;97261.13;;;18.42;53.63
8573;BME280;4324;42.012;24.872;2023-04-01T12:51:36;97266.13;;;18.70;53.55
8573;BME280;4324;42.012;24.872;2023-04-01T12:54:39;97273.25;;;18.97;53.16
8573;BME280;4324;42.012;24.872;2023-04-01T12:57:21;97272.72;;;19.05;52.93
8573;BME280;4324;42.012;24.872;2023-04-01T13:00:08;97276.78;;;19.07;52.94
8573;BME280;4324;42.012;24.872;2023-04-01T13:02:49;97260.34;;;18.94;52.90
8573;BME280;4324;42.012;24.872;2023-04-01T13:05:45;97263.31;;;18.92;53.07
8573;BME280;4324;42.012;24.872;2023-04-01T13:08:29;97260.59;;;18.87;53.29
8573;BME280;4324;42.012;24.872;2023-04-01T13:11:15;97264.09;;;18.88;53.55
8573;BME280;4324;42.012;24.872;2023-04-01T13:14:17;97244.03;;;18.95;53.59
8573;BME280;4324;42.012;24.872;2023-04-01T13:16:52;97228.16;;;18.94;53.12
8573;BME280;4324;42.012;24.872;2023-04-01T13:19:27;97242.44;;;19.04;53.22
8573;BME280;4324;42.012;24.872;2023-04-01T13:22:01;97237.34;;;19.03;53.13
8573;BME280;4324;42.012;24.872;2023-04-01T13:24:49;97234.09;;;19.01;53.03
8573;BME280;4324;42.012;24.872;2023-04-01T13:27:23;97241.91;;;19.13;52.77
8573;BME280;4324;42.012;24.872;2023-04-01T13:30:05;97223.94;;;19.13;52.72
8573;BME280;4324;42.012;24.872;2023-04-01T13:32:42;97222.88;;;19.24;52.41
8573;BME280;4324;42.012;24.872;2023-04-01T13:35:31;97210.28;;;19.20;52.47
8573;BME280;4324;42.012;24.872;2023-04-01T13:41:11;97232.25;;;19.06;52.32
8573;BME280;4324;42.012;24.872;2023-04-01T13:43:47;97270.56;;;18.97;52.13
8573;BME280;4324;42.012;24.872;2023-04-01T13:46:41;97329.50;;;18.81;52.35
8573;BME280;4324;42.012;24.872;2023-04-01T13:55:44;97387.47;;;17.96;52.64
8573;BME280;4324;42.012;24.872;2023-04-01T13:58:28;97348.56;;;17.39;53.43
8573;BME280;4324;42.012;24.872;2023-04-01T14:01:10;97404.81;;;17.45;53.83
8573;BME280;4324;42.012;24.872;2023-04-01T14:03:54;97409.97;;;17.29;53.28
8573;BME280;4324;42.012;24.872;2023-04-01T14:06:35;97418.22;;;17.06;53.72
8573;BME280;4324;42.012;24.872;2023-04-01T14:09:23;97428.03;;;16.83;53.95
8573;BME280;4324;42.012;24.872;2023-04-01T14:11:57;97470.53;;;16.68;54.40
8573;BME280;4324;42.012;24.872;2023-04-01T14:14:36;97463.88;;;16.54;53.48
8573;BME280;4324;42.012;24.872;2023-04-01T14:17:23;97466.13;;;16.28;56.23
8573;BME280;4324;42.012;24.872;2023-04-01T14:23:51;97492.81;;;15.47;58.63
8573;BME280;4324;42.012;24.872;2023-04-01T14:29:21;97499.75;;;15.01;50.50
8573;BME280;4324;42.012;24.872;2023-04-01T14:32:02;97484.00;;;14.88;54.42
8573;BME280;4324;42.012;24.872;2023-04-01T14:34:49;97447.31;;;14.48;58.31
8573;BME280;4324;42.012;24.872;2023-04-01T14:40:48;97477.66;;;14.47;54.19
8573;BME280;4324;42.012;24.872;2023-04-01T14:43:43;97460.56;;;14.55;56.93
8573;BME280;4324;42.012;24.872;2023-04-01T14:46:23;97387.78;;;14.31;59.18
8573;BME280;4324;42.012;24.872;2023-04-01T14:48:57;97455.97;;;14.97;60.21
8573;BME280;4324;42.012;24.872;2023-04-01T14:51:32;97446.81;;;15.17;60.90
8573;BME280;4324;42.012;24.872;2023-04-01T14:54:06;97450.25;;;15.41;58.33
8573;BME280;4324;42.012;24.872;2023-04-01T14:56:37;97405.84;;;15.35;59.40
8573;BME280;4324;42.012;24.872;2023-04-01T14:59:09;97410.00;;;15.54;59.67
8573;BME280;4324;42.012;24.872;2023-04-01T15:01:43;97450.19;;;16.05;59.60
8573;BME280;4324;42.012;24.872;2023-04-01T15:04:26;97443.06;;;16.22;61.07
8573;BME280;4324;42.012;24.872;2023-04-01T15:07:30;97453.03;;;16.43;59.89